sensor_id;sensor_type;location;lat;lon;timestamp;temperature;humidity
19680;DHT22;9989;48.962;9.182;2022-11-20T00:01:21;6.70;99.90
19680;DHT22;9989;48.962;9.182;2022-11-20T00:03:47;6.70;99.90
19680;DHT22;9989;48.962;9.182;2022-11-20T00:06:15;6.70;99.90
19680;DHT22;9989;48.962;9.182;2022-11-20T00:08:41;6.60;99.90
19680;DHT22;9989;48.962;9.182;2022-11-20T00:11:09;6.60;99.90
19680;DHT22;9989;48.962;9.182;2022-11-20T00:13:35;6.50;99.90
19680;DHT22;9989;48.962;9.182;2022-11-20T00:16:03;6.50;99.90
19680;DHT22;9989;48.962;9.182;2022-11-20T00:18:29;6.50;99.90
19680;DHT22;9989;48.962;9.182;2022-11-20T00:21:07;6.50;99.90
19680;DHT22;9989;48.962;9.182;2022-11-20T00:23:33;6.50;99.90
19680;DHT22;9989;48.962;9.182;2022-11-20T00:26:11;6.60;99.90
19680;DHT22;9989;48.962;9.182;2022-11-20T00:28:38;6.60;99.90
19680;DHT22;9989;48.962;9.182;2022-11-20T00:31:13;6.50;99.90
19680;DHT22;9989;48.962;9.182;2022-11-20T00:33:40;6.50;99.90
19680;DHT22;9989;48.962;9.182;2022-11-20T00:36:07;6.50;99.90
19680;DHT22;9989;48.962;9.182;2022-11-20T00:38:34;6.50;99.90
19680;DHT22;9989;48.962;9.182;2022-11-20T00:41:01;6.50;99.90
19680;DHT22;9989;48.962;9.182;2022-11-20T00:43:28;6.60;99.90
19680;DHT22;9989;48.962;9.182;2022-11-20T00:46:00;6.60;99.90
19680;DHT22;9989;48.962;9.182;2022-11-20T00:48:27;6.70;99.90
19680;DHT22;9989;48.962;9.182;2022-11-20T00:50:53;6.70;99.90
19680;DHT22;9989;48.962;9.182;2022-11-20T00:53:18;6.80;99.90
19680;DHT22;9989;48.962;9.182;2022-11-20T00:55:53;6.80;99.90
19680;DHT22;9989;48.962;9.182;2022-11-20T00:58:19;6.90;99.90
19680;DHT22;9989;48.962;9.182;2022-11-20T01:00:45;6.90;99.90
19680;DHT22;9989;48.962;9.182;2022-11-20T01:03:10;6.90;99.90
19680;DHT22;9989;48.962;9.182;2022-11-20T01:05:36;6.90;99.90
19680;DHT22;9989;48.962;9.182;2022-11-20T01:08:01;7.00;99.90
19680;DHT22;9989;48.962;9.182;2022-11-20T01:10:27;6.90;99.90
19680;DHT22;9989;48.962;9.182;2022-11-20T01:12:52;6.90;99.90
19680;DHT22;9989;48.962;9.182;2022-11-20T01:15:38;7.00;99.90
19680;DHT22;9989;48.962;9.182;2022-11-20T01:18:03;7.00;99.90
19680;DHT22;9989;48.962;9.182;2022-11-20T01:20:33;7.00;99.90
19680;DHT22;9989;48.962;9.182;2022-11-20T01:22:59;7.00;99.90
19680;DHT22;9989;48.962;9.182;2022-11-20T01:25:25;7.00;99.90
19680;DHT22;9989;48.962;9.182;2022-11-20T01:27:50;7.00;99.90
19680;DHT22;9989;48.962;9.182;2022-11-20T01:30:16;7.00;99.90
19680;DHT22;9989;48.962;9.182;2022-11-20T01:32:42;7.00;99.90
19680;DHT22;9989;48.962;9.182;2022-11-20T01:35:07;7.10;99.90
19680;DHT22;9989;48.962;9.182;2022-11-20T01:37:34;7.10;99.90
19680;DHT22;9989;48.962;9.182;2022-11-20T01:40:00;7.10;99.90
19680;DHT22;9989;48.962;9.182;2022-11-20T01:42:26;7.10;99.90
19680;DHT22;9989;48.962;9.182;2022-11-20T01:51:41;7.00;99.90
19680;DHT22;9989;48.962;9.182;2022-11-20T01:54:17;7.00;99.90
19680;DHT22;9989;48.962;9.182;2022-11-20T01:56:46;7.00;99.90
19680;DHT22;9989;48.962;9.182;2022-11-20T01:59:16;7.00;99.90
19680;DHT22;9989;48.962;9.182;2022-11-20T02:01:43;7.00;99.90
19680;DHT22;9989;48.962;9.182;2022-11-20T02:04:10;7.00;99.90
19680;DHT22;9989;48.962;9.182;2022-11-20T02:07:00;7.00;99.90
19680;DHT22;9989;48.962;9.182;2022-11-20T02:09:24;7.00;99.90
19680;DHT22;9989;48.962;9.182;2022-11-20T02:11:50;7.00;99.90
19680;DHT22;9989;48.962;9.182;2022-11-20T02:14:16;7.00;99.90
19680;DHT22;9989;48.962;9.182;2022-11-20T02:16:46;7.00;99.90
19680;DHT22;9989;48.962;9.182;2022-11-20T02:19:32;6.90;99.90
19680;DHT22;9989;48.962;9.182;2022-11-20T02:22:13;6.80;99.90
19680;DHT22;9989;48.962;9.182;2022-11-20T02:24:39;6.80;99.90
19680;DHT22;9989;48.962;9.182;2022-11-20T02:27:09;6.80;99.90
19680;DHT22;9989;48.962;9.182;2022-11-20T02:29:48;6.80;99.90
19680;DHT22;9989;48.962;9.182;2022-11-20T02:34:47;6.90;99.90
19680;DHT22;9989;48.962;9.182;2022-11-20T02:37:14;7.00;99.90
19680;DHT22;9989;48.962;9.182;2022-11-20T02:39:40;7.00;99.90
19680;DHT22;9989;48.962;9.182;2022-11-20T02:42:06;7.10;99.90
19680;DHT22;9989;48.962;9.182;2022-11-20T02:44:31;7.20;99.90
19680;DHT22;9989;48.962;9.182;2022-11-20T02:46:58;7.20;99.90
19680;DHT22;9989;48.962;9.182;2022-11-20T02:49:24;7.30;99.90
19680;DHT22;9989;48.962;9.182;2022-11-20T02:51:50;7.30;99.90
19680;DHT22;9989;48.962;9.182;2022-11-20T02:54:16;7.30;99.90
19680;DHT22;9989;48.962;9.182;2022-11-20T02:56:41;7.40;99.90
19680;DHT22;9989;48.962;9.182;2022-11-20T02:59:07;7.40;99.90
19680;DHT22;9989;48.962;9.182;2022-11-20T03:01:33;7.40;99.90
19680;DHT22;9989;48.962;9.182;2022-11-20T03:03:59;7.40;99.90
19680;DHT22;9989;48.962;9.182;2022-11-20T03:06:24;7.40;99.90
19680;DHT22;9989;48.962;9.182;2022-11-20T03:08:50;7.50;99.90
19680;DHT22;9989;48.962;9.182;2022-11-20T03:11:16;7.50;99.90
19680;DHT22;9989;48.962;9.182;2022-11-20T03:13:42;7.50;99.90
19680;DHT22;9989;48.962;9.182;2022-11-20T03:16:19;7.50;99.90
19680;DHT22;9989;48.962;9.182;2022-11-20T03:18:45;7.50;99.90
19680;DHT22;9989;48.962;9.182;2022-11-20T03:21:13;7.50;99.90
19680;DHT22;9989;48.962;9.182;2022-11-20T03:23:39;7.50;99.90
19680;DHT22;9989;48.962;9.182;2022-11-20T03:26:16;7.50;99.90
19680;DHT22;9989;48.962;9.182;2022-11-20T03:28:47;7.50;99.90
19680;DHT22;9989;48.962;9.182;2022-11-20T03:31:14;7.60;99.90
19680;DHT22;9989;48.962;9.182;2022-11-20T03:33:41;7.50;99.90
19680;DHT22;9989;48.962;9.182;2022-11-20T03:36:13;7.50;99.90
19680;DHT22;9989;48.962;9.182;2022-11-20T03:38:39;7.50;99.90
19680;DHT22;9989;48.962;9.182;2022-11-20T03:41:10;7.60;99.90
19680;DHT22;9989;48.962;9.182;2022-11-20T03:43:36;7.60;99.90
19680;DHT22;9989;48.962;9.182;2022-11-20T03:46:03;7.60;99.90
19680;DHT22;9989;48.962;9.182;2022-11-20T03:48:29;7.60;99.90
19680;DHT22;9989;48.962;9.182;2022-11-20T03:51:16;7.60;99.90
19680;DHT22;9989;48.962;9.182;2022-11-20T03:53:43;7.60;99.90
19680;DHT22;9989;48.962;9.182;2022-11-20T03:56:10;7.60;99.90
19680;DHT22;9989;48.962;9.182;2022-11-20T03:58:37;7.60;99.90
19680;DHT22;9989;48.962;9.182;2022-11-20T04:01:10;7.60;99.90
19680;DHT22;9989;48.962;9.182;2022-11-20T04:03:37;7.60;99.90
19680;DHT22;9989;48.962;9.182;2022-11-20T04:06:08;7.60;99.90
19680;DHT22;9989;48.962;9.182;2022-11-20T04:08:35;7.60;99.90
19680;DHT22;9989;48.962;9.182;2022-11-20T04:11:14;7.60;99.90
19680;DHT22;9989;48.962;9.182;2022-11-20T04:13:40;7.60;99.90
19680;DHT22;9989;48.962;9.182;2022-11-20T04:16:07;7.60;99.90
19680;DHT22;9989;48.962;9.182;2022-11-20T04:18:33;7.60;99.90
19680;DHT22;9989;48.962;9.182;2022-11-20T04:20:59;7.60;99.90
19680;DHT22;9989;48.962;9.182;2022-11-20T04:23:26;7.60;99.90
19680;DHT22;9989;48.962;9.182;2022-11-20T04:25:52;7.60;99.90
19680;DHT22;9989;48.962;9.182;2022-11-20T04:28:18;7.60;99.90
19680;DHT22;9989;48.962;9.182;2022-11-20T04:30:43;7.60;99.90
19680;DHT22;9989;48.962;9.182;2022-11-20T04:33:09;7.60;99.90
19680;DHT22;9989;48.962;9.182;2022-11-20T04:35:35;7.60;99.90
19680;DHT22;9989;48.962;9.182;2022-11-20T04:38:01;7.60;99.90
19680;DHT22;9989;48.962;9.182;2022-11-20T04:40:27;7.60;99.90
19680;DHT22;9989;48.962;9.182;2022-11-20T04:42:54;7.60;99.90
19680;DHT22;9989;48.962;9.182;2022-11-20T04:45:20;7.60;99.90
19680;DHT22;9989;48.962;9.182;2022-11-20T04:47:46;7.60;99.90
19680;DHT22;9989;48.962;9.182;2022-11-20T04:50:11;7.60;99.90
19680;DHT22;9989;48.962;9.182;2022-11-20T04:52:37;7.60;99.90
19680;DHT22;9989;48.962;9.182;2022-11-20T04:55:03;7.60;99.90
19680;DHT22;9989;48.962;9.182;2022-11-20T04:57:29;7.60;99.90
19680;DHT22;9989;48.962;9.182;2022-11-20T04:59:55;7.60;99.90
19680;DHT22;9989;48.962;9.182;2022-11-20T05:02:21;7.60;99.90
19680;DHT22;9989;48.962;9.182;2022-11-20T05:04:46;7.40;99.90
19680;DHT22;9989;48.962;9.182;2022-11-20T05:07:12;7.40;99.90
19680;DHT22;9989;48.962;9.182;2022-11-20T05:09:38;7.30;99.90
19680;DHT22;9989;48.962;9.182;2022-11-20T05:12:03;7.30;99.90
19680;DHT22;9989;48.962;9.182;2022-11-20T05:14:29;7.30;99.90
19680;DHT22;9989;48.962;9.182;2022-11-20T05:16:55;7.40;99.90
19680;DHT22;9989;48.962;9.182;2022-11-20T05:19:20;7.40;99.90
19680;DHT22;9989;48.962;9.182;2022-11-20T05:21:46;7.40;99.90
19680;DHT22;9989;48.962;9.182;2022-11-20T05:24:11;7.50;99.90
19680;DHT22;9989;48.962;9.182;2022-11-20T05:26:40;7.60;99.90
19680;DHT22;9989;48.962;9.182;2022-11-20T05:29:05;7.60;99.90
19680;DHT22;9989;48.962;9.182;2022-11-20T05:31:31;7.60;99.90
19680;DHT22;9989;48.962;9.182;2022-11-20T05:33:57;7.70;99.90
19680;DHT22;9989;48.962;9.182;2022-11-20T05:36:23;7.60;99.90
19680;DHT22;9989;48.962;9.182;2022-11-20T05:38:49;7.70;99.90
19680;DHT22;9989;48.962;9.182;2022-11-20T05:41:16;7.60;99.90
19680;DHT22;9989;48.962;9.182;2022-11-20T05:43:44;7.60;99.90
19680;DHT22;9989;48.962;9.182;2022-11-20T05:46:12;7.60;99.90
19680;DHT22;9989;48.962;9.182;2022-11-20T05:48:41;7.60;99.90
19680;DHT22;9989;48.962;9.182;2022-11-20T05:51:08;7.70;99.90
19680;DHT22;9989;48.962;9.182;2022-11-20T05:53:35;7.70;99.90
19680;DHT22;9989;48.962;9.182;2022-11-20T05:56:04;7.70;99.90
19680;DHT22;9989;48.962;9.182;2022-11-20T05:58:31;7.70;99.90
19680;DHT22;9989;48.962;9.182;2022-11-20T06:03:36;7.80;99.90
19680;DHT22;9989;48.962;9.182;2022-11-20T06:06:03;7.90;99.90
19680;DHT22;9989;48.962;9.182;2022-11-20T06:08:30;7.90;99.90
19680;DHT22;9989;48.962;9.182;2022-11-20T06:10:56;7.90;99.90
19680;DHT22;9989;48.962;9.182;2022-11-20T06:13:22;7.90;99.90
19680;DHT22;9989;48.962;9.182;2022-11-20T06:15:51;7.90;99.90
19680;DHT22;9989;48.962;9.182;2022-11-20T06:18:17;7.90;99.90
19680;DHT22;9989;48.962;9.182;2022-11-20T06:20:43;7.90;99.90
19680;DHT22;9989;48.962;9.182;2022-11-20T06:23:09;8.00;99.90
19680;DHT22;9989;48.962;9.182;2022-11-20T06:25:43;8.00;99.90
19680;DHT22;9989;48.962;9.182;2022-11-20T06:28:09;8.00;99.90
19680;DHT22;9989;48.962;9.182;2022-11-20T06:30:35;8.00;99.90
19680;DHT22;9989;48.962;9.182;2022-11-20T06:33:01;8.00;99.90
19680;DHT22;9989;48.962;9.182;2022-11-20T06:35:26;8.00;99.90
19680;DHT22;9989;48.962;9.182;2022-11-20T06:37:52;7.90;99.90
19680;DHT22;9989;48.962;9.182;2022-11-20T06:40:18;7.80;99.90
19680;DHT22;9989;48.962;9.182;2022-11-20T06:42:43;7.80;99.90
19680;DHT22;9989;48.962;9.182;2022-11-20T06:45:09;7.70;99.90
19680;DHT22;9989;48.962;9.182;2022-11-20T06:47:35;7.60;99.90
19680;DHT22;9989;48.962;9.182;2022-11-20T06:50:00;7.60;99.90
19680;DHT22;9989;48.962;9.182;2022-11-20T06:52:26;7.60;99.90
19680;DHT22;9989;48.962;9.182;2022-11-20T06:54:52;7.60;99.90
19680;DHT22;9989;48.962;9.182;2022-11-20T06:57:17;7.60;99.90
19680;DHT22;9989;48.962;9.182;2022-11-20T06:59:43;7.60;99.90
19680;DHT22;9989;48.962;9.182;2022-11-20T07:02:12;7.60;99.90
19680;DHT22;9989;48.962;9.182;2022-11-20T07:04:38;7.60;99.90
19680;DHT22;9989;48.962;9.182;2022-11-20T07:07:04;7.60;99.90
19680;DHT22;9989;48.962;9.182;2022-11-20T07:09:31;7.60;99.90
19680;DHT22;9989;48.962;9.182;2022-11-20T07:11:57;7.60;99.90
19680;DHT22;9989;48.962;9.182;2022-11-20T07:14:22;7.60;99.90
19680;DHT22;9989;48.962;9.182;2022-11-20T07:16:48;7.60;99.90
19680;DHT22;9989;48.962;9.182;2022-11-20T07:19:13;7.70;99.90
19680;DHT22;9989;48.962;9.182;2022-11-20T07:21:39;7.80;99.90
19680;DHT22;9989;48.962;9.182;2022-11-20T07:24:07;7.80;99.90
19680;DHT22;9989;48.962;9.182;2022-11-20T07:26:32;7.90;99.90
19680;DHT22;9989;48.962;9.182;2022-11-20T07:28:58;7.90;99.90
19680;DHT22;9989;48.962;9.182;2022-11-20T07:31:23;8.00;99.90
19680;DHT22;9989;48.962;9.182;2022-11-20T07:33:49;8.00;99.90
19680;DHT22;9989;48.962;9.182;2022-11-20T07:36:15;8.00;99.90
19680;DHT22;9989;48.962;9.182;2022-11-20T07:38:40;8.10;99.90
19680;DHT22;9989;48.962;9.182;2022-11-20T07:41:06;8.00;99.90
19680;DHT22;9989;48.962;9.182;2022-11-20T07:43:31;8.00;99.90
19680;DHT22;9989;48.962;9.182;2022-11-20T07:45:58;8.00;99.90
19680;DHT22;9989;48.962;9.182;2022-11-20T07:48:24;8.00;99.90
19680;DHT22;9989;48.962;9.182;2022-11-20T07:50:53;8.00;99.90
19680;DHT22;9989;48.962;9.182;2022-11-20T07:53:20;8.00;99.90
19680;DHT22;9989;48.962;9.182;2022-11-20T07:55:47;8.00;99.90
19680;DHT22;9989;48.962;9.182;2022-11-20T07:58:12;8.00;99.90
19680;DHT22;9989;48.962;9.182;2022-11-20T08:00:39;8.00;99.90
19680;DHT22;9989;48.962;9.182;2022-11-20T08:03:05;8.00;99.90
19680;DHT22;9989;48.962;9.182;2022-11-20T08:05:31;8.00;99.90
19680;DHT22;9989;48.962;9.182;2022-11-20T08:07:57;8.10;99.90
19680;DHT22;9989;48.962;9.182;2022-11-20T08:10:23;8.10;99.90
19680;DHT22;9989;48.962;9.182;2022-11-20T08:12:50;8.10;99.90
19680;DHT22;9989;48.962;9.182;2022-11-20T08:15:35;8.20;99.90
19680;DHT22;9989;48.962;9.182;2022-11-20T08:18:10;8.30;99.90
19680;DHT22;9989;48.962;9.182;2022-11-20T08:20:37;8.30;99.90
19680;DHT22;9989;48.962;9.182;2022-11-20T08:23:04;8.40;99.90
19680;DHT22;9989;48.962;9.182;2022-11-20T08:25:31;8.40;99.90
19680;DHT22;9989;48.962;9.182;2022-11-20T08:27:59;8.40;99.90
19680;DHT22;9989;48.962;9.182;2022-11-20T08:30:25;8.40;99.90
19680;DHT22;9989;48.962;9.182;2022-11-20T08:32:51;8.40;99.90
19680;DHT22;9989;48.962;9.182;2022-11-20T08:35:16;8.40;99.90
19680;DHT22;9989;48.962;9.182;2022-11-20T08:37:45;8.50;99.90
19680;DHT22;9989;48.962;9.182;2022-11-20T08:40:11;8.50;99.90
19680;DHT22;9989;48.962;9.182;2022-11-20T08:42:37;8.50;99.90
19680;DHT22;9989;48.962;9.182;2022-11-20T08:45:03;8.50;99.90
19680;DHT22;9989;48.962;9.182;2022-11-20T08:47:28;8.50;99.90
19680;DHT22;9989;48.962;9.182;2022-11-20T08:49:54;8.50;99.90
19680;DHT22;9989;48.962;9.182;2022-11-20T08:52:20;8.50;99.90
19680;DHT22;9989;48.962;9.182;2022-11-20T08:54:45;8.40;99.90
19680;DHT22;9989;48.962;9.182;2022-11-20T08:57:11;8.40;99.90
19680;DHT22;9989;48.962;9.182;2022-11-20T08:59:37;8.30;99.90
19680;DHT22;9989;48.962;9.182;2022-11-20T09:02:02;8.30;99.90
19680;DHT22;9989;48.962;9.182;2022-11-20T09:04:28;8.30;99.90
19680;DHT22;9989;48.962;9.182;2022-11-20T09:06:54;8.40;99.90
19680;DHT22;9989;48.962;9.182;2022-11-20T09:09:19;8.40;99.90
19680;DHT22;9989;48.962;9.182;2022-11-20T09:11:45;8.30;99.90
19680;DHT22;9989;48.962;9.182;2022-11-20T09:14:11;8.30;99.90
19680;DHT22;9989;48.962;9.182;2022-11-20T09:16:36;8.30;99.90
19680;DHT22;9989;48.962;9.182;2022-11-20T09:19:02;8.20;99.90
19680;DHT22;9989;48.962;9.182;2022-11-20T09:21:27;8.20;99.90
19680;DHT22;9989;48.962;9.182;2022-11-20T09:23:53;8.20;99.90
19680;DHT22;9989;48.962;9.182;2022-11-20T09:26:18;8.30;99.90
19680;DHT22;9989;48.962;9.182;2022-11-20T09:28:44;8.30;99.90
19680;DHT22;9989;48.962;9.182;2022-11-20T09:31:24;8.30;99.90
19680;DHT22;9989;48.962;9.182;2022-11-20T09:33:51;8.30;99.90
19680;DHT22;9989;48.962;9.182;2022-11-20T09:36:17;8.40;99.90
19680;DHT22;9989;48.962;9.182;2022-11-20T09:38:44;8.40;99.90
19680;DHT22;9989;48.962;9.182;2022-11-20T09:41:34;8.40;99.90
19680;DHT22;9989;48.962;9.182;2022-11-20T09:44:20;8.30;99.90
19680;DHT22;9989;48.962;9.182;2022-11-20T09:55:31;8.50;99.90
19680;DHT22;9989;48.962;9.182;2022-11-20T09:57:59;8.50;99.90
19680;DHT22;9989;48.962;9.182;2022-11-20T10:00:25;8.50;99.90
19680;DHT22;9989;48.962;9.182;2022-11-20T10:03:16;8.60;99.90
19680;DHT22;9989;48.962;9.182;2022-11-20T10:05:50;8.60;99.90
19680;DHT22;9989;48.962;9.182;2022-11-20T10:08:22;8.80;99.90
19680;DHT22;9989;48.962;9.182;2022-11-20T10:30:14;8.70;99.90
19680;DHT22;9989;48.962;9.182;2022-11-20T10:32:43;8.60;99.90
19680;DHT22;9989;48.962;9.182;2022-11-20T10:35:26;8.60;99.90
19680;DHT22;9989;48.962;9.182;2022-11-20T10:37:59;8.50;99.90
19680;DHT22;9989;48.962;9.182;2022-11-20T10:40:38;8.40;99.90
19680;DHT22;9989;48.962;9.182;2022-11-20T10:48:24;8.50;99.90
19680;DHT22;9989;48.962;9.182;2022-11-20T10:56:17;8.60;99.90
19680;DHT22;9989;48.962;9.182;2022-11-20T11:01:23;8.70;99.90
19680;DHT22;9989;48.962;9.182;2022-11-20T11:03:50;8.90;99.90
19680;DHT22;9989;48.962;9.182;2022-11-20T11:06:38;8.90;99.90
19680;DHT22;9989;48.962;9.182;2022-11-20T11:09:12;9.00;99.90
19680;DHT22;9989;48.962;9.182;2022-11-20T11:11:39;9.00;99.90
19680;DHT22;9989;48.962;9.182;2022-11-20T11:14:12;9.00;99.90
19680;DHT22;9989;48.962;9.182;2022-11-20T11:16:55;9.00;99.90
19680;DHT22;9989;48.962;9.182;2022-11-20T11:19:24;8.90;99.90
19680;DHT22;9989;48.962;9.182;2022-11-20T11:21:56;8.90;99.90
19680;DHT22;9989;48.962;9.182;2022-11-20T11:24:27;8.90;99.90
19680;DHT22;9989;48.962;9.182;2022-11-20T11:26:59;9.00;99.90
19680;DHT22;9989;48.962;9.182;2022-11-20T11:29:25;9.00;99.90
19680;DHT22;9989;48.962;9.182;2022-11-20T11:34:36;9.60;99.90
19680;DHT22;9989;48.962;9.182;2022-11-20T11:37:02;10.10;99.90
19680;DHT22;9989;48.962;9.182;2022-11-20T11:39:30;10.50;99.90
19680;DHT22;9989;48.962;9.182;2022-11-20T11:41:57;11.50;99.90
19680;DHT22;9989;48.962;9.182;2022-11-20T11:44:31;13.40;99.90
19680;DHT22;9989;48.962;9.182;2022-11-20T11:47:29;15.20;99.90
19680;DHT22;9989;48.962;9.182;2022-11-20T11:50:20;16.40;99.90
19680;DHT22;9989;48.962;9.182;2022-11-20T11:55:58;15.60;99.90
19680;DHT22;9989;48.962;9.182;2022-11-20T12:01:54;15.40;99.90
19680;DHT22;9989;48.962;9.182;2022-11-20T12:04:44;15.70;99.90
19680;DHT22;9989;48.962;9.182;2022-11-20T12:07:38;17.00;99.90
19680;DHT22;9989;48.962;9.182;2022-11-20T12:10:02;18.30;98.20
19680;DHT22;9989;48.962;9.182;2022-11-20T12:12:33;19.60;93.50
19680;DHT22;9989;48.962;9.182;2022-11-20T12:15:01;20.10;86.00
19680;DHT22;9989;48.962;9.182;2022-11-20T12:17:27;20.60;83.60
19680;DHT22;9989;48.962;9.182;2022-11-20T12:19:53;21.50;78.50
19680;DHT22;9989;48.962;9.182;2022-11-20T12:25:15;21.40;74.60
19680;DHT22;9989;48.962;9.182;2022-11-20T12:28:11;22.00;72.40
19680;DHT22;9989;48.962;9.182;2022-11-20T12:31:01;22.10;68.90
19680;DHT22;9989;48.962;9.182;2022-11-20T12:33:36;21.00;68.10
19680;DHT22;9989;48.962;9.182;2022-11-20T12:36:19;19.30;72.90
19680;DHT22;9989;48.962;9.182;2022-11-20T12:41:43;16.70;81.10
19680;DHT22;9989;48.962;9.182;2022-11-20T12:50:44;16.00;90.40
19680;DHT22;9989;48.962;9.182;2022-11-20T12:56:19;18.00;82.40
19680;DHT22;9989;48.962;9.182;2022-11-20T13:01:45;17.90;75.80
19680;DHT22;9989;48.962;9.182;2022-11-20T13:07:04;18.90;74.30
19680;DHT22;9989;48.962;9.182;2022-11-20T13:09:32;19.20;72.10
19680;DHT22;9989;48.962;9.182;2022-11-20T13:12:16;18.70;71.80
19680;DHT22;9989;48.962;9.182;2022-11-20T13:15:06;17.50;75.30
19680;DHT22;9989;48.962;9.182;2022-11-20T13:17:41;16.30;79.30
19680;DHT22;9989;48.962;9.182;2022-11-20T13:20:16;15.50;82.80
19680;DHT22;9989;48.962;9.182;2022-11-20T13:22:46;15.70;83.30
19680;DHT22;9989;48.962;9.182;2022-11-20T13:25:30;15.90;81.60
19680;DHT22;9989;48.962;9.182;2022-11-20T13:27:58;15.50;81.80
19680;DHT22;9989;48.962;9.182;2022-11-20T13:30:26;14.90;83.30
19680;DHT22;9989;48.962;9.182;2022-11-20T13:32:56;14.20;86.40
19680;DHT22;9989;48.962;9.182;2022-11-20T13:35:31;13.60;88.70
19680;DHT22;9989;48.962;9.182;2022-11-20T13:38:12;13.20;90.40
19680;DHT22;9989;48.962;9.182;2022-11-20T13:40:56;12.60;91.40
19680;DHT22;9989;48.962;9.182;2022-11-20T13:43:23;12.30;92.80
19680;DHT22;9989;48.962;9.182;2022-11-20T13:46:00;12.30;93.30
19680;DHT22;9989;48.962;9.182;2022-11-20T13:48:38;12.70;93.60
19680;DHT22;9989;48.962;9.182;2022-11-20T13:56:56;14.00;90.40
19680;DHT22;9989;48.962;9.182;2022-11-20T14:02:17;13.90;91.20
19680;DHT22;9989;48.962;9.182;2022-11-20T14:04:47;13.70;90.90
19680;DHT22;9989;48.962;9.182;2022-11-20T14:07:14;13.40;91.70
19680;DHT22;9989;48.962;9.182;2022-11-20T14:09:55;13.00;92.50
19680;DHT22;9989;48.962;9.182;2022-11-20T14:12:31;12.60;93.60
19680;DHT22;9989;48.962;9.182;2022-11-20T14:14:57;12.30;94.40
19680;DHT22;9989;48.962;9.182;2022-11-20T14:17:34;12.00;95.00
19680;DHT22;9989;48.962;9.182;2022-11-20T14:20:02;11.80;95.80
19680;DHT22;9989;48.962;9.182;2022-11-20T14:22:29;11.50;96.10
19680;DHT22;9989;48.962;9.182;2022-11-20T14:25:04;11.30;95.30
19680;DHT22;9989;48.962;9.182;2022-11-20T14:27:37;11.10;96.20
19680;DHT22;9989;48.962;9.182;2022-11-20T14:30:03;11.10;96.20
19680;DHT22;9989;48.962;9.182;2022-11-20T14:32:35;11.00;96.20
19680;DHT22;9989;48.962;9.182;2022-11-20T14:35:07;10.90;96.60
19680;DHT22;9989;48.962;9.182;2022-11-20T14:37:37;10.80;97.30
19680;DHT22;9989;48.962;9.182;2022-11-20T14:40:21;10.60;97.70
19680;DHT22;9989;48.962;9.182;2022-11-20T14:42:47;10.50;97.60
19680;DHT22;9989;48.962;9.182;2022-11-20T14:45:12;10.50;97.60
19680;DHT22;9989;48.962;9.182;2022-11-20T14:47:39;10.40;98.10
19680;DHT22;9989;48.962;9.182;2022-11-20T14:50:13;10.30;98.60
19680;DHT22;9989;48.962;9.182;2022-11-20T14:52:50;10.30;99.40
19680;DHT22;9989;48.962;9.182;2022-11-20T14:55:25;10.50;99.00
19680;DHT22;9989;48.962;9.182;2022-11-20T14:57:55;10.60;99.00
19680;DHT22;9989;48.962;9.182;2022-11-20T15:00:22;10.40;99.00
19680;DHT22;9989;48.962;9.182;2022-11-20T15:02:49;10.30;99.40
19680;DHT22;9989;48.962;9.182;2022-11-20T15:05:21;10.30;99.90
19680;DHT22;9989;48.962;9.182;2022-11-20T15:07:50;10.10;99.90
19680;DHT22;9989;48.962;9.182;2022-11-20T15:10:26;10.00;99.90
19680;DHT22;9989;48.962;9.182;2022-11-20T15:12:59;9.90;99.90
19680;DHT22;9989;48.962;9.182;2022-11-20T15:15:50;9.80;99.90
19680;DHT22;9989;48.962;9.182;2022-11-20T15:18:31;9.70;99.90
19680;DHT22;9989;48.962;9.182;2022-11-20T15:21:00;9.60;99.90
19680;DHT22;9989;48.962;9.182;2022-11-20T15:23:27;9.60;99.90
19680;DHT22;9989;48.962;9.182;2022-11-20T15:25:54;9.50;99.90
19680;DHT22;9989;48.962;9.182;2022-11-20T15:28:36;9.50;99.90
19680;DHT22;9989;48.962;9.182;2022-11-20T15:31:03;9.30;99.90
19680;DHT22;9989;48.962;9.182;2022-11-20T15:33:31;9.30;99.90
19680;DHT22;9989;48.962;9.182;2022-11-20T15:35:57;9.30;99.90
19680;DHT22;9989;48.962;9.182;2022-11-20T15:38:23;9.20;99.90
19680;DHT22;9989;48.962;9.182;2022-11-20T15:40:48;9.20;99.90
19680;DHT22;9989;48.962;9.182;2022-11-20T15:43:14;9.10;99.90
19680;DHT22;9989;48.962;9.182;2022-11-20T15:45:59;9.10;99.90
19680;DHT22;9989;48.962;9.182;2022-11-20T15:48:38;9.10;99.90
19680;DHT22;9989;48.962;9.182;2022-11-20T15:53:40;9.00;99.90
19680;DHT22;9989;48.962;9.182;2022-11-20T15:56:07;9.00;99.90
19680;DHT22;9989;48.962;9.182;2022-11-20T15:58:35;9.00;99.90
19680;DHT22;9989;48.962;9.182;2022-11-20T16:01:01;9.00;99.90
19680;DHT22;9989;48.962;9.182;2022-11-20T16:03:27;9.00;99.90
19680;DHT22;9989;48.962;9.182;2022-11-20T16:05:53;8.90;99.90
19680;DHT22;9989;48.962;9.182;2022-11-20T16:08:18;8.90;99.90
19680;DHT22;9989;48.962;9.182;2022-11-20T16:10:44;8.90;99.90
19680;DHT22;9989;48.962;9.182;2022-11-20T16:13:14;8.90;99.90
19680;DHT22;9989;48.962;9.182;2022-11-20T16:16:01;8.80;99.90
19680;DHT22;9989;48.962;9.182;2022-11-20T16:18:27;8.80;99.90
19680;DHT22;9989;48.962;9.182;2022-11-20T16:20:54;8.80;99.90
19680;DHT22;9989;48.962;9.182;2022-11-20T16:23:20;8.70;99.90
19680;DHT22;9989;48.962;9.182;2022-11-20T16:25:47;8.70;99.90
19680;DHT22;9989;48.962;9.182;2022-11-20T16:28:13;8.70;99.90
19680;DHT22;9989;48.962;9.182;2022-11-20T16:30:39;8.70;99.90
19680;DHT22;9989;48.962;9.182;2022-11-20T16:33:09;8.70;99.90
19680;DHT22;9989;48.962;9.182;2022-11-20T16:35:36;8.70;99.90
19680;DHT22;9989;48.962;9.182;2022-11-20T16:38:01;8.70;99.90
19680;DHT22;9989;48.962;9.182;2022-11-20T16:40:27;8.70;99.90
19680;DHT22;9989;48.962;9.182;2022-11-20T16:42:52;8.60;99.90
19680;DHT22;9989;48.962;9.182;2022-11-20T16:45:18;8.60;99.90
19680;DHT22;9989;48.962;9.182;2022-11-20T16:47:44;8.60;99.90
19680;DHT22;9989;48.962;9.182;2022-11-20T16:50:10;8.50;99.90
19680;DHT22;9989;48.962;9.182;2022-11-20T16:52:35;8.40;99.90
19680;DHT22;9989;48.962;9.182;2022-11-20T16:55:01;8.30;99.90
19680;DHT22;9989;48.962;9.182;2022-11-20T16:57:28;8.20;99.90
19680;DHT22;9989;48.962;9.182;2022-11-20T16:59:54;8.20;99.90
19680;DHT22;9989;48.962;9.182;2022-11-20T17:02:20;8.20;99.90
19680;DHT22;9989;48.962;9.182;2022-11-20T17:04:45;8.10;99.90
19680;DHT22;9989;48.962;9.182;2022-11-20T17:07:11;8.10;99.90
19680;DHT22;9989;48.962;9.182;2022-11-20T17:09:37;8.10;99.90
19680;DHT22;9989;48.962;9.182;2022-11-20T17:12:03;8.10;99.90
19680;DHT22;9989;48.962;9.182;2022-11-20T17:14:29;8.10;99.90
19680;DHT22;9989;48.962;9.182;2022-11-20T17:16:54;8.10;99.90
19680;DHT22;9989;48.962;9.182;2022-11-20T17:19:20;8.10;99.90
19680;DHT22;9989;48.962;9.182;2022-11-20T17:21:46;8.10;99.90
19680;DHT22;9989;48.962;9.182;2022-11-20T17:24:12;8.10;99.90
19680;DHT22;9989;48.962;9.182;2022-11-20T17:26:41;8.10;99.90
19680;DHT22;9989;48.962;9.182;2022-11-20T17:29:13;8.10;99.90
19680;DHT22;9989;48.962;9.182;2022-11-20T17:31:39;8.10;99.90
19680;DHT22;9989;48.962;9.182;2022-11-20T17:34:06;8.10;99.90
19680;DHT22;9989;48.962;9.182;2022-11-20T17:36:32;8.10;99.90
19680;DHT22;9989;48.962;9.182;2022-11-20T17:38:58;8.10;99.90
19680;DHT22;9989;48.962;9.182;2022-11-20T17:41:28;8.10;99.90
19680;DHT22;9989;48.962;9.182;2022-11-20T17:43:55;8.10;99.90
19680;DHT22;9989;48.962;9.182;2022-11-20T17:46:23;8.20;99.90